Las Palomas, New Mexico
Current Conditions -  °F | °C
As of 11:53 PM on Friday 24 Oct 2014 (Local Time) from KTCS Reporting Station
Clear Clear  
Wind Chill: 59°   Ceiling: Unl
Heat Index: 59°   Visibility: 10mi
Dew Point: 45°   Wind: 0mph
Humidity: 60%   Direction: NA
Pressure: 30.25"   Gusts: NA
Location:  33.1162°N, 107.291°W
Report Text: KTCS 250553Z AUTO 00000KT 10SM CLR 15/07 A3025 RMK AO2 SLP179 T01500072 10256 20150 51007 TSNO
Loading
Personal Weather Stations






























Interactive Weather Map
Tropical Storm Tracking
New forecast layout! Learn more

10-Day Weather Forecast

Advertisements
Track Severe Weather on mobile